Time;durP1;ratioP1;P1;durP2;ratioP2;P2;SDS_P1;SDS_P2;PMS_P1;PMS_P2;Temp;Humidity;BMP_temperature;BMP_pressure;BME280_temperature;BME280_humidity;BME280_pressure;Samples;Min_cycle;Max_cycle;Signal;HPM_P1;HPM_P2
2022/04/14 00:00:20;;;;;;;5.63;3.75;;;;;;;20.91;46.60;101770.81;4996367;28;20081;-67
2022/04/14 00:02:45;;;;;;;6.60;3.92;;;;;;;20.92;46.48;101764.38;4996564;28;20022;-67
2022/04/14 00:05:11;;;;;;;5.95;4.13;;;;;;;20.94;46.71;101772.38;4996938;28;20022;-67
2022/04/14 00:07:37;;;;;;;6.85;3.83;;;;;;;20.93;46.71;101771.53;4996184;28;20030;-68
2022/04/14 00:10:06;;;;;;;7.75;3.92;;;;;;;20.92;46.34;101778.00;4996824;28;20054;-67
2022/04/14 00:12:31;;;;;;;7.68;4.18;;;;;;;20.89;45.97;101775.59;4996023;28;20036;-67
2022/04/14 00:14:57;;;;;;;6.07;3.85;;;;;;;20.88;46.81;101779.38;4996581;28;20030;-67
2022/04/14 00:17:23;;;;;;;7.18;3.30;;;;;;;20.85;46.50;101780.53;4996473;28;20030;-67
2022/04/14 00:19:48;;;;;;;5.43;3.40;;;;;;;20.82;47.00;101778.19;4995471;28;20064;-67
2022/04/14 00:22:14;;;;;;;8.55;3.20;;;;;;;20.80;46.27;101773.91;4994991;28;20138;-67
2022/04/14 00:24:39;;;;;;;5.68;2.60;;;;;;;20.79;46.79;101772.22;4995953;28;20033;-67
2022/04/14 00:27:04;;;;;;;5.65;2.67;;;;;;;20.76;46.76;101772.56;4996214;28;20557;-66
2022/04/14 00:29:30;;;;;;;2.78;1.98;;;;;;;20.75;46.71;101765.41;4996095;28;20452;-66
2022/04/14 00:31:55;;;;;;;3.08;1.77;;;;;;;20.72;46.56;101760.31;4994721;28;20033;-67
2022/04/14 00:34:21;;;;;;;6.68;2.00;;;;;;;20.72;46.98;101763.88;4996227;28;20627;-68
2022/04/14 00:36:46;;;;;;;2.53;1.45;;;;;;;20.72;46.80;101763.88;4996243;28;20380;-66
2022/04/14 00:39:11;;;;;;;3.70;2.17;;;;;;;20.71;47.02;101761.34;4994473;28;20041;-67
2022/04/14 00:41:40;;;;;;;1.95;1.25;;;;;;;20.71;46.39;101762.22;4995893;28;20022;-66
2022/04/14 00:44:05;;;;;;;2.88;1.73;;;;;;;20.71;46.19;101758.63;4995452;28;20026;-67
2022/04/14 00:46:31;;;;;;;2.97;2.20;;;;;;;20.71;46.68;101766.78;4995996;28;20033;-67
2022/04/14 00:48:56;;;;;;;6.10;2.42;;;;;;;20.69;46.54;101763.38;4995787;28;20033;-66
2022/04/14 00:51:22;;;;;;;4.07;1.80;;;;;;;20.68;45.98;101767.13;4995515;28;20026;-66
2022/04/14 00:53:47;;;;;;;4.50;2.58;;;;;;;20.67;46.42;101766.28;4995448;28;20141;-67
2022/04/14 00:56:13;;;;;;;3.78;2.10;;;;;;;20.66;46.23;101774.63;4995273;28;20030;-67
2022/04/14 00:58:40;;;;;;;4.05;1.83;;;;;;;20.64;46.34;101777.50;4995522;28;20034;-67
2022/04/14 01:01:06;;;;;;;4.25;1.92;;;;;;;20.61;46.70;101783.31;4994494;28;20018;-68
2022/04/14 01:03:33;;;;;;;2.75;1.80;;;;;;;20.60;46.03;101783.47;4994278;28;20066;-67
2022/04/14 01:05:59;;;;;;;3.97;2.00;;;;;;;20.58;46.22;101782.78;4995263;28;20022;-67
2022/04/14 01:08:24;;;;;;;4.60;1.75;;;;;;;20.56;46.71;101782.09;4995049;28;20057;-67
2022/04/14 01:10:50;;;;;;;2.97;1.88;;;;;;;20.55;46.94;101778.53;4993984;28;20476;-67
2022/04/14 01:13:17;;;;;;;2.35;1.73;;;;;;;20.54;46.72;101776.00;4995257;28;20108;-68
2022/04/14 01:15:46;;;;;;;4.28;1.48;;;;;;;20.52;46.34;101778.88;4995233;28;20038;-66
2022/04/14 01:18:12;;;;;;;2.38;0.77;;;;;;;20.51;46.56;101776.34;4994950;28;20048;-67
2022/04/14 01:20:39;;;;;;;1.88;1.15;;;;;;;20.52;46.49;101772.59;4995221;28;20030;-68
2022/04/14 01:23:05;;;;;;;1.42;0.77;;;;;;;20.53;46.20;101777.00;4994980;28;20022;-67
2022/04/14 01:25:32;;;;;;;0.63;0.63;;;;;;;20.53;46.24;101768.84;4993762;28;20057;-67
2022/04/14 01:27:57;;;;;;;1.08;0.68;;;;;;;20.53;46.55;101766.13;4995043;28;20043;-66
2022/04/14 01:30:23;;;;;;;1.42;0.82;;;;;;;20.53;46.13;101771.56;4994732;28;20049;-67
2022/04/14 01:32:48;;;;;;;0.73;0.65;;;;;;;20.51;46.39;101776.34;4994642;28;20037;-68
2022/04/14 01:35:14;;;;;;;0.63;0.63;;;;;;;20.50;46.25;101780.06;4994982;28;20036;-67
2022/04/14 01:37:39;;;;;;;2.40;1.00;;;;;;;20.48;46.24;101776.66;4995094;28;20507;-66
2022/04/14 01:40:05;;;;;;;0.80;0.80;;;;;;;20.46;46.51;101773.28;4977399;28;20502;-67
2022/04/14 01:42:31;;;;;;;0.80;0.73;;;;;;;20.43;46.18;101784.50;4994566;28;20018;-67
2022/04/14 01:44:56;;;;;;;2.40;0.95;;;;;;;20.42;46.56;101788.22;4994682;28;20432;-66
2022/04/14 01:47:21;;;;;;;0.88;0.68;;;;;;;20.41;46.53;101783.84;4994652;28;20113;-67
2022/04/14 01:49:47;;;;;;;0.43;0.40;;;;;;;20.38;46.50;101786.88;4994760;28;20130;-66
2022/04/14 01:52:12;;;;;;;1.30;0.80;;;;;;;20.36;46.63;101788.91;4994803;28;20049;-67
2022/04/14 01:54:38;;;;;;;0.73;0.73;;;;;;;20.32;46.46;101777.53;4993216;28;20037;-66
2022/04/14 01:57:04;;;;;;;0.95;0.85;;;;;;;20.28;46.58;101782.44;4994465;28;20053;-68
2022/04/14 01:59:29;;;;;;;0.82;0.77;;;;;;;20.25;46.54;101766.47;4994274;28;20104;-67
2022/04/14 02:01:54;;;;;;;0.90;0.82;;;;;;;20.22;46.18;101772.22;4993198;28;20034;-67
2022/04/14 02:04:20;;;;;;;4.88;0.90;;;;;;;20.20;46.19;101773.41;4994489;28;20080;-66
2022/04/14 02:06:45;;;;;;;1.13;0.70;;;;;;;20.19;46.69;101785.28;4993245;28;20364;-68
2022/04/14 02:09:10;;;;;;;1.13;1.02;;;;;;;20.16;46.67;101783.75;4994345;28;20093;-67
2022/04/14 02:11:36;;;;;;;1.60;0.80;;;;;;;20.14;46.50;101783.09;4994421;28;20027;-67
2022/04/14 02:14:01;;;;;;;3.25;1.20;;;;;;;20.12;46.24;101774.25;4994240;28;20035;-67
2022/04/14 02:16:27;;;;;;;1.13;1.02;;;;;;;20.11;46.84;101783.41;4994143;28;20033;-67
2022/04/14 02:18:52;;;;;;;2.08;0.82;;;;;;;20.09;46.64;101777.31;4994544;28;20066;-67
2022/04/14 02:21:17;;;;;;;1.17;0.90;;;;;;;20.07;46.46;101779.31;4993092;28;20022;-67
2022/04/14 02:23:43;;;;;;;1.20;0.77;;;;;;;20.05;46.45;101765.03;4994357;28;20149;-68
2022/04/14 02:26:08;;;;;;;1.20;0.90;;;;;;;20.04;46.82;101762.50;4994126;28;20031;-67
2022/04/14 02:28:33;;;;;;;1.08;0.95;;;;;;;20.02;46.98;101764.50;4994092;28;20373;-67
2022/04/14 02:30:59;;;;;;;1.95;0.90;;;;;;;19.99;46.69;101762.97;4993985;28;20041;-67
2022/04/14 02:33:24;;;;;;;1.20;1.00;;;;;;;19.97;46.87;101756.00;4993355;28;20019;-67
2022/04/14 02:35:50;;;;;;;1.08;0.98;;;;;;;19.97;46.37;101761.44;4992632;28;20161;-67
2022/04/14 02:38:15;;;;;;;0.82;0.82;;;;;;;19.96;46.79;101755.16;4992706;28;20026;-67
2022/04/14 02:40:40;;;;;;;3.05;1.23;;;;;;;19.95;46.48;101758.06;4993696;28;20040;-67
2022/04/14 02:43:06;;;;;;;1.52;0.88;;;;;;;19.94;47.00;101773.53;4993351;28;20034;-67
2022/04/14 02:45:31;;;;;;;1.13;0.95;;;;;;;19.93;46.87;101765.53;4993866;28;20033;-67
2022/04/14 02:47:57;;;;;;;2.25;0.80;;;;;;;19.91;46.44;101762.97;4993383;28;20042;-67
2022/04/14 02:50:22;;;;;;;0.82;0.82;;;;;;;19.91;46.70;101768.41;4993786;28;20028;-66
2022/04/14 02:52:49;;;;;;;2.38;0.85;;;;;;;19.89;46.87;101765.00;4993695;28;20420;-67
2022/04/14 02:55:14;;;;;;;1.30;0.98;;;;;;;19.91;47.31;101764.84;4993450;28;20088;-67
2022/04/14 02:57:40;;;;;;;1.10;1.00;;;;;;;19.90;47.46;101761.28;4993489;28;20022;-68
2022/04/14 03:00:09;;;;;;;1.33;0.80;;;;;;;19.86;46.83;101762.63;4993570;28;20031;-68
2022/04/14 03:02:35;;;;;;;1.80;1.27;;;;;;;19.84;46.66;101756.50;4993319;28;20053;-68
2022/04/14 03:05:02;;;;;;;1.80;1.17;;;;;;;19.84;47.25;101761.09;4993331;28;20050;-68
2022/04/14 03:07:28;;;;;;;2.22;1.10;;;;;;;19.82;47.11;101769.41;4992509;28;20076;-68
2022/04/14 03:09:53;;;;;;;0.73;0.70;;;;;;;19.79;47.22;101769.75;4993485;28;20030;-68
2022/04/14 03:12:19;;;;;;;1.52;1.10;;;;;;;19.78;46.48;101765.31;4993730;28;20521;-67
2022/04/14 03:14:46;;;;;;;1.88;1.30;;;;;;;19.80;46.80;101774.16;4993590;28;20022;-66
2022/04/14 03:17:12;;;;;;;2.63;1.35;;;;;;;19.81;47.23;101773.16;4993355;28;20038;-67
2022/04/14 03:19:37;;;;;;;2.80;1.60;;;;;;;19.80;47.01;101776.88;4992706;28;20080;-68
2022/04/14 03:22:03;;;;;;;1.67;1.58;;;;;;;19.84;47.00;101780.13;4993896;28;20030;-67
2022/04/14 03:24:28;;;;;;;4.13;1.60;;;;;;;19.86;46.88;101770.78;4993768;28;20030;-67
2022/04/14 03:26:54;;;;;;;3.85;1.30;;;;;;;19.86;46.94;101765.34;4993495;28;20038;-68
2022/04/14 03:29:19;;;;;;;2.58;1.38;;;;;;;19.87;47.35;101772.50;4993534;28;20035;-67
2022/04/14 03:31:44;;;;;;;2.15;1.60;;;;;;;19.87;47.15;101777.94;4993277;28;20026;-67
2022/04/14 03:34:10;;;;;;;1.38;1.00;;;;;;;19.87;47.28;101777.94;4992619;28;20044;-67
2022/04/14 03:36:35;;;;;;;1.52;1.25;;;;;;;19.85;47.26;101763.63;4993810;28;20033;-66
2022/04/14 03:39:00;;;;;;;3.85;1.42;;;;;;;19.85;47.20;101768.25;4993594;28;20093;-67
2022/04/14 03:41:26;;;;;;;2.80;1.27;;;;;;;19.81;47.23;101775.88;4993716;28;20033;-67
2022/04/14 03:43:51;;;;;;;1.65;1.38;;;;;;;19.79;46.93;101780.63;4992015;28;20031;-67
2022/04/14 03:46:19;;;;;;;3.40;1.50;;;;;;;19.75;46.97;101791.00;4993456;28;20495;-67
2022/04/14 03:48:45;;;;;;;2.00;1.27;;;;;;;19.75;47.10;101787.41;4993256;28;20026;-67
2022/04/14 03:51:12;;;;;;;1.77;1.27;;;;;;;19.72;46.93;101785.00;4993077;28;20033;-67
2022/04/14 03:53:37;;;;;;;2.13;1.45;;;;;;;19.72;47.04;101785.00;4992076;28;20479;-67
2022/04/14 03:56:03;;;;;;;5.00;1.45;;;;;;;19.70;47.28;101787.06;4996785;28;20058;-67
2022/04/14 03:58:28;;;;;;;4.07;1.48;;;;;;;19.68;47.02;101794.53;4995929;28;20030;-66
2022/04/14 04:00:54;;;;;;;3.83;1.38;;;;;;;19.66;47.29;101791.09;4996474;28;20030;-67
2022/04/14 04:03:19;;;;;;;2.03;1.75;;;;;;;19.61;47.32;101788.91;4996445;28;20379;-67
2022/04/14 04:05:44;;;;;;;1.95;1.33;;;;;;;19.59;47.30;101790.94;4996430;28;20030;-67
2022/04/14 04:08:10;;;;;;;1.45;1.13;;;;;;;19.56;47.18;101796.69;4996531;28;20032;-67
2022/04/14 04:10:35;;;;;;;1.95;1.38;;;;;;;19.55;47.25;101794.13;4996661;28;20097;-67
2022/04/14 04:13:01;;;;;;;2.90;1.60;;;;;;;19.54;47.26;101792.44;4996635;28;20376;-67
2022/04/14 04:15:26;;;;;;;3.97;1.73;;;;;;;19.54;47.65;101787.00;4997123;28;20090;-68
2022/04/14 04:17:51;;;;;;;1.48;1.38;;;;;;;19.52;47.05;101792.59;4996320;28;20026;-68
2022/04/14 04:20:18;;;;;;;1.95;1.40;;;;;;;19.49;47.41;101789.34;4996275;28;20037;-67
2022/04/14 04:22:44;;;;;;;2.60;1.48;;;;;;;19.51;46.89;101792.78;4996103;28;20045;-68
2022/04/14 04:25:09;;;;;;;4.43;1.88;;;;;;;19.49;47.53;101792.91;4996073;28;20037;-67
2022/04/14 04:27:36;;;;;;;3.17;1.52;;;;;;;19.46;46.95;101787.81;4995993;28;20046;-67
2022/04/14 04:30:06;;;;;;;2.65;2.03;;;;;;;19.43;47.57;101790.03;4996348;28;20045;-67
2022/04/14 04:32:33;;;;;;;2.42;1.38;;;;;;;19.42;47.55;101793.75;4995879;28;20018;-67
2022/04/14 04:35:02;;;;;;;2.38;1.55;;;;;;;19.41;47.36;101803.75;4995772;28;20396;-68
2022/04/14 04:37:28;;;;;;;1.70;1.60;;;;;;;19.40;46.98;101801.22;4996217;28;20373;-68
2022/04/14 04:39:53;;;;;;;3.40;1.42;;;;;;;19.38;47.09;101797.75;4995897;28;20029;-68
2022/04/14 04:42:18;;;;;;;2.88;1.75;;;;;;;19.37;46.83;101802.34;4995883;28;20030;-67
2022/04/14 04:44:44;;;;;;;3.25;1.50;;;;;;;19.35;46.84;101792.63;4995913;28;20023;-68
2022/04/14 04:47:09;;;;;;;1.92;1.70;;;;;;;19.33;47.43;101800.09;4995867;28;20054;-67
2022/04/14 04:49:34;;;;;;;4.30;1.70;;;;;;;19.29;47.36;101799.56;4996007;28;20029;-68
2022/04/14 04:52:00;;;;;;;2.30;1.48;;;;;;;19.28;47.06;101797.03;4996174;28;20037;-67
2022/04/14 04:54:25;;;;;;;3.67;1.35;;;;;;;19.26;47.31;101799.06;4996039;28;20042;-67
2022/04/14 04:56:51;;;;;;;2.60;1.50;;;;;;;19.23;47.34;101800.25;4994326;28;20464;-67
2022/04/14 04:59:16;;;;;;;1.60;1.50;;;;;;;19.19;47.15;101799.72;4995518;28;20026;-67
2022/04/14 05:01:42;;;;;;;6.35;1.52;;;;;;;19.19;47.99;101804.28;4995316;28;20044;-67
2022/04/14 05:04:09;;;;;;;2.17;1.42;;;;;;;19.17;47.09;101801.75;4995798;28;20036;-67
2022/04/14 05:06:34;;;;;;;2.03;1.33;;;;;;;19.13;47.65;101794.91;4995554;28;20464;-67
2022/04/14 05:08:59;;;;;;;2.05;1.50;;;;;;;19.13;47.70;101804.91;4995647;28;20032;-68
2022/04/14 05:11:25;;;;;;;1.60;1.25;;;;;;;19.11;47.24;101807.81;4995757;28;20030;-67
2022/04/14 05:13:50;;;;;;;4.97;1.77;;;;;;;19.11;47.50;101815.09;4995308;28;20025;-67
2022/04/14 05:16:16;;;;;;;3.42;1.88;;;;;;;19.11;47.20;101818.69;4995727;28;20113;-68
2022/04/14 05:18:41;;;;;;;4.10;1.63;;;;;;;19.11;47.32;101824.09;4995408;28;20403;-67
2022/04/14 05:21:06;;;;;;;5.97;1.95;;;;;;;19.11;47.30;101815.09;4995391;28;20814;-67
2022/04/14 05:23:32;;;;;;;2.72;2.10;;;;;;;19.11;46.74;101812.38;4995729;28;20030;-67
2022/04/14 05:25:57;;;;;;;3.20;2.00;;;;;;;19.11;47.95;101824.09;4995597;28;20038;-67
2022/04/14 05:28:22;;;;;;;2.85;1.83;;;;;;;19.11;47.69;101826.81;4993632;28;20046;-67
2022/04/14 05:30:48;;;;;;;2.58;1.83;;;;;;;19.13;47.90;101832.94;4995039;28;20049;-68
2022/04/14 05:33:14;;;;;;;3.22;2.25;;;;;;;19.13;47.23;101837.50;4994940;28;20057;-67
2022/04/14 05:35:40;;;;;;;2.95;1.80;;;;;;;19.13;47.82;101838.38;4994892;28;20539;-67
2022/04/14 05:38:06;;;;;;;19.77;10.18;;;;;;;19.13;47.75;101832.09;4995101;28;20023;-67
2022/04/14 05:40:32;;;;;;;6.35;2.92;;;;;;;19.15;47.26;101840.94;4994733;28;20061;-67
2022/04/14 05:42:57;;;;;;;4.20;2.58;;;;;;;19.14;47.23;101839.22;4993435;28;20476;-66
2022/04/14 05:45:23;;;;;;;5.70;1.90;;;;;;;19.12;47.28;101841.25;4993513;28;20052;-67
2022/04/14 05:47:48;;;;;;;2.70;1.95;;;;;;;19.11;48.13;101845.84;4993538;28;20022;-68
2022/04/14 05:50:13;;;;;;;2.33;1.13;;;;;;;19.11;47.19;101844.97;4995029;28;20391;-67
2022/04/14 05:52:39;;;;;;;0.90;0.70;;;;;;;19.09;47.58;101849.72;4993408;28;20025;-67
2022/04/14 05:55:05;;;;;;;2.08;1.50;;;;;;;19.06;47.31;101848.19;4993324;28;20026;-67
2022/04/14 05:57:30;;;;;;;2.50;1.90;;;;;;;19.06;47.28;101859.06;4994952;28;20479;-67
2022/04/14 05:59:57;;;;;;;4.50;2.13;;;;;;;19.05;46.73;101851.91;4994341;28;20080;-67
2022/04/14 06:02:22;;;;;;;3.00;2.20;;;;;;;19.05;46.96;101857.34;4994600;28;20053;-67
2022/04/14 06:04:47;;;;;;;4.40;2.63;;;;;;;19.06;47.36;101864.47;4994701;28;20058;-67
2022/04/14 06:07:13;;;;;;;5.38;2.80;;;;;;;19.10;47.73;101862.28;4994229;28;20030;-67
2022/04/14 06:09:38;;;;;;;5.93;3.65;;;;;;;19.11;46.76;101864.00;4994636;28;20026;-67
2022/04/14 06:12:04;;;;;;;4.18;2.78;;;;;;;19.17;47.77;101866.94;4994980;28;20019;-66
2022/04/14 06:14:30;;;;;;;4.95;3.13;;;;;;;19.22;47.71;101865.59;4994282;28;20380;-68
2022/04/14 06:16:56;;;;;;;4.78;3.33;;;;;;;19.32;47.55;101863.63;4993987;28;20030;-67
2022/04/14 06:19:21;;;;;;;4.57;3.42;;;;;;;19.43;47.33;101872.38;4993308;28;20033;-68
2022/04/14 06:21:47;;;;;;;8.18;3.47;;;;;;;19.55;47.54;101872.94;4993859;28;20391;-67
2022/04/14 06:24:12;;;;;;;8.02;4.57;;;;;;;19.71;47.29;101871.16;4994149;28;20034;-68
2022/04/14 06:26:37;;;;;;;7.20;4.05;;;;;;;19.91;47.06;101868.19;4993223;28;20030;-68
2022/04/14 06:29:03;;;;;;;5.78;3.70;;;;;;;20.09;46.88;101869.78;4992772;28;20042;-67
2022/04/14 06:31:28;;;;;;;5.95;4.00;;;;;;;20.35;46.83;101874.31;4993778;28;20117;-66
2022/04/14 06:33:54;;;;;;;8.95;4.13;;;;;;;20.56;46.64;101872.81;4993745;28;20024;-67
2022/04/14 06:36:19;;;;;;;8.35;4.93;;;;;;;20.82;46.67;101867.22;4994136;28;20392;-69
2022/04/14 06:38:45;;;;;;;11.10;4.18;;;;;;;21.06;46.58;101869.91;4992696;28;20152;-67
2022/04/14 06:41:10;;;;;;;8.43;3.80;;;;;;;21.29;46.15;101870.94;4993972;28;20026;-67
2022/04/14 06:43:35;;;;;;;6.50;3.92;;;;;;;21.48;46.69;101870.56;4993712;28;20022;-67
2022/04/14 06:46:03;;;;;;;7.85;4.05;;;;;;;21.73;45.56;101871.31;4993788;28;20026;-67
2022/04/14 06:48:30;;;;;;;9.48;4.97;;;;;;;21.95;45.81;101867.00;4993601;28;20110;-67
2022/04/14 06:50:56;;;;;;;6.60;4.40;;;;;;;22.12;45.50;101870.47;4993970;28;20030;-67
2022/04/14 06:53:21;;;;;;;8.65;4.95;;;;;;;22.29;46.05;101872.94;4993749;28;20022;-67
2022/04/14 06:55:48;;;;;;;11.45;5.93;;;;;;;22.43;45.15;101872.19;4993941;28;20062;-67
2022/04/14 06:58:13;;;;;;;8.30;5.53;;;;;;;22.62;45.67;101879.88;4993459;28;20045;-67
2022/04/14 07:00:39;;;;;;;10.32;5.85;;;;;;;22.81;44.78;101875.84;4993419;28;20018;-68
2022/04/14 07:03:04;;;;;;;12.98;6.82;;;;;;;23.05;45.32;101869.31;4993301;28;20041;-67
2022/04/14 07:05:30;;;;;;;13.23;7.18;;;;;;;23.25;44.77;101875.13;4993540;28;20373;-67
2022/04/14 07:07:55;;;;;;;15.52;7.35;;;;;;;23.41;44.60;101873.09;4993449;28;20473;-68
2022/04/14 07:10:21;;;;;;;9.20;6.30;;;;;;;23.59;44.06;101873.56;4992502;28;20032;-67
2022/04/14 07:12:46;;;;;;;13.30;6.88;;;;;;;23.80;44.67;101877.41;4993362;28;20085;-66
2022/04/14 07:15:12;;;;;;;18.48;7.78;;;;;;;24.00;44.54;101878.53;4993389;28;20035;-67
2022/04/14 07:17:37;;;;;;;11.48;6.78;;;;;;;24.20;44.47;101879.66;4993363;28;20030;-68
2022/04/14 07:20:04;;;;;;;15.98;7.55;;;;;;;24.38;43.62;101882.81;4993719;28;20034;-68
2022/04/14 07:22:31;;;;;;;15.60;7.97;;;;;;;24.59;43.66;101880.13;4993259;28;20026;-67
2022/04/14 07:24:58;;;;;;;16.33;7.65;;;;;;;24.79;43.05;101878.44;4993471;28;20089;-67
2022/04/14 07:27:23;;;;;;;17.70;8.55;;;;;;;24.97;43.13;101882.59;4992830;28;20426;-67
2022/04/14 07:29:49;;;;;;;16.80;8.48;;;;;;;25.13;43.20;101882.31;4995063;28;20034;-67
2022/04/14 07:32:15;;;;;;;18.90;9.73;;;;;;;25.28;43.13;101877.59;4997075;28;20087;-67
2022/04/14 07:34:40;;;;;;;19.25;8.48;;;;;;;25.44;42.83;101874.53;4996894;28;20034;-67
2022/04/14 07:37:06;;;;;;;17.42;8.77;;;;;;;25.60;42.67;101874.22;4997079;28;20026;-67
2022/04/14 07:39:31;;;;;;;14.40;8.07;;;;;;;25.79;42.70;101878.16;4995893;28;20030;-67
2022/04/14 07:41:57;;;;;;;14.98;8.98;;;;;;;25.95;42.23;101873.16;4996749;28;20510;-67
2022/04/14 07:44:22;;;;;;;17.38;9.25;;;;;;;26.08;42.05;101874.25;4996003;28;20070;-68
2022/04/14 07:46:48;;;;;;;15.70;9.38;;;;;;;26.27;42.12;101881.78;4995666;28;20553;-67
2022/04/14 07:49:13;;;;;;;18.58;9.57;;;;;;;26.41;41.92;101883.53;4996550;28;20045;-67
2022/04/14 07:51:40;;;;;;;17.30;9.00;;;;;;;26.57;41.33;101886.72;4996457;28;20487;-67
2022/04/14 07:54:06;;;;;;;19.35;10.15;;;;;;;26.77;41.76;101889.50;4996737;28;20109;-68
2022/04/14 07:56:31;;;;;;;19.75;9.90;;;;;;;26.96;41.39;101894.22;4995205;28;20125;-67
2022/04/14 07:58:57;;;;;;;16.35;9.30;;;;;;;27.14;41.36;101891.66;4995147;28;20539;-67
2022/04/14 08:01:22;;;;;;;20.20;9.48;;;;;;;27.30;41.13;101889.56;4996434;28;20468;-67
2022/04/14 08:03:47;;;;;;;22.38;10.77;;;;;;;27.46;40.86;101886.38;4995196;28;20027;-67
2022/04/14 08:06:14;;;;;;;18.60;9.35;;;;;;;27.60;40.68;101890.81;4994867;28;20029;-67
2022/04/14 08:08:40;;;;;;;20.02;10.32;;;;;;;27.73;40.30;101891.59;4996113;28;20484;-67
2022/04/14 08:11:07;;;;;;;16.42;10.25;;;;;;;27.84;39.77;101890.09;4996135;28;20024;-67
2022/04/14 08:13:37;;;;;;;24.08;11.38;;;;;;;27.96;40.17;101891.13;4995857;28;20480;-67
2022/04/14 08:16:06;;;;;;;21.80;11.48;;;;;;;28.08;39.77;101894.06;4994760;28;20058;-67
2022/04/14 08:18:36;;;;;;;21.30;11.20;;;;;;;28.22;40.07;101890.19;4996114;28;20030;-67
2022/04/14 08:21:03;;;;;;;18.88;9.95;;;;;;;28.37;39.73;101895.41;4995949;28;20030;-66
2022/04/14 08:23:28;;;;;;;22.92;11.25;;;;;;;28.52;39.01;101893.22;4996268;28;20101;-67
2022/04/14 08:25:54;;;;;;;21.65;11.43;;;;;;;28.67;39.54;101893.78;4996133;28;20108;-68
2022/04/14 08:28:19;;;;;;;26.92;12.00;;;;;;;28.79;38.61;101892.00;4994976;28;20522;-67
2022/04/14 08:30:44;;;;;;;23.60;12.60;;;;;;;28.95;38.46;101896.13;4996457;28;20038;-67
2022/04/14 08:33:12;;;;;;;26.80;14.32;;;;;;;29.11;38.62;101901.09;4996828;28;20442;-67
2022/04/14 08:35:38;;;;;;;27.63;15.23;;;;;;;29.27;38.22;101895.88;4996194;28;20399;-67
2022/04/14 08:38:06;;;;;;;28.77;15.38;;;;;;;29.48;37.88;101891.03;4996052;28;20038;-67
2022/04/14 08:40:39;;;;;;;29.48;15.80;;;;;;;29.67;37.89;101889.97;4996220;28;20485;-67
2022/04/14 08:43:06;;;;;;;30.25;16.98;;;;;;;29.81;37.76;101891.53;4996966;28;20514;-67
2022/04/14 08:45:34;;;;;;;31.70;15.68;;;;;;;29.94;37.79;101886.69;4995586;28;20073;-67
2022/04/14 08:48:00;;;;;;;33.40;17.63;;;;;;;30.05;37.43;101887.84;4994776;28;20084;-67
2022/04/14 08:50:26;;;;;;;31.77;17.35;;;;;;;30.17;37.25;101879.63;4996061;28;20031;-66
2022/04/14 08:52:52;;;;;;;27.38;15.82;;;;;;;30.31;37.00;101883.88;4995357;28;20052;-67
2022/04/14 08:55:18;;;;;;;28.95;17.65;;;;;;;30.45;37.43;101889.03;4977960;28;20037;-67
2022/04/14 08:57:44;;;;;;;31.27;17.42;;;;;;;30.56;36.88;101884.63;4995267;28;20503;-67
2022/04/14 09:00:12;;;;;;;32.55;18.55;;;;;;;30.52;36.95;101884.25;4995040;28;20026;-67
2022/04/14 09:02:38;;;;;;;30.92;17.48;;;;;;;30.73;36.40;101876.50;4995151;28;20050;-67
2022/04/14 09:05:04;;;;;;;30.48;17.77;;;;;;;30.85;36.15;101878.19;4995004;28;20061;-67
2022/04/14 09:07:30;;;;;;;32.08;18.63;;;;;;;31.04;35.85;101885.38;4994895;28;20038;-67
2022/04/14 09:09:55;;;;;;;30.00;17.20;;;;;;;31.17;36.07;101876.00;4993689;28;20117;-67
2022/04/14 09:12:21;;;;;;;35.13;18.10;;;;;;;31.34;35.82;101879.75;4994917;28;20467;-66
2022/04/14 09:14:48;;;;;;;31.95;17.25;;;;;;;31.49;35.59;101874.56;4994973;28;20037;-68
2022/04/14 09:17:13;;;;;;;30.67;17.60;;;;;;;31.63;35.19;101876.00;4994943;28;20026;-67
2022/04/14 09:19:39;;;;;;;30.42;17.90;;;;;;;31.83;35.02;101877.56;4994722;28;20370;-69
2022/04/14 09:22:13;;;;;;;26.77;17.08;;;;;;;32.00;34.73;101875.69;4994836;28;20037;-67
2022/04/14 09:24:41;;;;;;;32.95;16.20;;;;;;;32.13;34.42;101869.91;4994977;28;20113;-67
2022/04/14 09:27:07;;;;;;;30.88;16.85;;;;;;;32.24;34.01;101872.66;4994905;28;20361;-67
2022/04/14 09:29:32;;;;;;;28.50;16.67;;;;;;;32.32;33.94;101874.19;4994350;28;20042;-67
2022/04/14 09:31:58;;;;;;;28.20;16.00;;;;;;;32.44;34.02;101866.63;4993131;28;20169;-67
2022/04/14 09:34:51;;;;;;;32.38;16.00;;;;;;;32.52;33.17;101863.47;4993366;28;20079;-67
2022/04/14 09:37:18;;;;;;;24.55;15.48;;;;;;;32.63;33.89;101858.97;4994728;28;20109;-68
2022/04/14 09:40:08;;;;;;;28.77;16.17;;;;;;;32.80;33.55;101865.41;4994353;28;20079;-68
2022/04/14 09:42:36;;;;;;;23.02;12.77;;;;;;;32.76;32.38;101862.28;4994873;28;20030;-67
2022/04/14 09:45:19;;;;;;;19.17;11.45;;;;;;;32.80;33.24;101860.66;4994448;28;20436;-67
2022/04/14 09:47:44;;;;;;;;;;;;;;;33.22;33.25;101868.63;4994944;28;20035;-68
2022/04/14 09:50:44;;;;;;;19.70;12.85;;;;;;;33.92;31.74;101858.53;4994199;28;20371;-69
2022/04/14 09:53:14;;;;;;;20.73;12.45;;;;;;;34.74;31.49;101861.16;4951600;28;20038;-68
2022/04/14 09:55:41;;;;;;;16.48;10.27;;;;;;;34.67;30.96;101849.41;4994531;28;20026;-68
2022/04/14 09:58:23;;;;;;;17.15;10.68;;;;;;;34.73;30.46;101855.88;4992905;28;20575;-67
2022/04/14 10:00:50;;;;;;;17.70;11.60;;;;;;;35.34;29.95;101846.91;4994062;28;20085;-67
2022/04/14 10:03:16;;;;;;;18.35;9.88;;;;;;;35.28;29.95;101838.78;4994434;28;20480;-68
2022/04/14 10:05:42;;;;;;;22.23;11.52;;;;;;;35.16;30.13;101838.13;4993992;28;20026;-68
2022/04/14 10:08:08;;;;;;;15.55;10.20;;;;;;;34.61;30.33;101839.31;4994618;28;20030;-68
2022/04/14 10:10:40;;;;;;;16.55;10.20;;;;;;;34.99;28.98;101833.53;4994387;28;20069;-67
2022/04/14 10:13:08;;;;;;;19.95;9.05;;;;;;;34.71;30.38;101831.06;4994267;28;20029;-67
2022/04/14 10:15:36;;;;;;;16.95;10.60;;;;;;;35.25;28.98;101833.72;4994020;28;20065;-67
2022/04/14 10:18:06;;;;;;;18.50;12.82;;;;;;;35.54;28.16;101832.25;4993977;28;20117;-68
2022/04/14 10:20:33;;;;;;;17.27;10.32;;;;;;;35.67;28.58;101837.34;4992856;28;20030;-67
2022/04/14 10:22:59;;;;;;;19.70;12.30;;;;;;;35.94;27.93;101826.03;4994183;28;20387;-68
2022/04/14 10:25:25;;;;;;;20.77;12.73;;;;;;;36.26;28.22;101828.66;4994161;28;20066;-68
2022/04/14 10:27:53;;;;;;;17.05;11.60;;;;;;;36.67;27.54;101819.25;4993683;28;20070;-66
2022/04/14 10:30:20;;;;;;;22.65;10.82;;;;;;;37.05;27.06;101824.28;4992571;28;20034;-67
2022/04/14 10:32:46;;;;;;;16.10;10.68;;;;;;;36.04;28.28;101815.75;4992243;28;20101;-68
2022/04/14 10:35:12;;;;;;;16.92;10.10;;;;;;;35.16;28.27;101810.25;4993572;28;20030;-67
2022/04/14 10:37:42;;;;;;;14.60;10.00;;;;;;;34.41;28.80;101805.69;4993751;28;20109;-68
2022/04/14 10:40:11;;;;;;;14.35;8.95;;;;;;;35.36;28.16;101802.03;4993620;28;20383;-68
2022/04/14 10:42:37;;;;;;;17.40;10.07;;;;;;;35.97;27.57;101798.41;4993656;28;20029;-67
2022/04/14 10:45:16;;;;;;;17.50;9.70;;;;;;;36.60;27.20;101802.75;4992312;28;20026;-67
2022/04/14 10:48:00;;;;;;;11.98;8.30;;;;;;;35.71;27.97;101802.22;4994245;28;20034;-68
2022/04/14 10:50:32;;;;;;;10.45;8.15;;;;;;;34.98;28.29;101801.19;4993410;28;20036;-68
2022/04/14 10:53:02;;;;;;;13.13;8.18;;;;;;;34.31;28.87;101809.19;4993515;28;20428;-67
2022/04/14 10:56:00;;;;;;;17.00;9.63;;;;;;;33.78;28.63;101803.59;4993445;28;20034;-69
2022/04/14 10:58:28;;;;;;;13.02;8.13;;;;;;;33.76;29.38;101814.94;4959950;28;20066;-68
2022/04/14 11:00:54;;;;;;;12.10;8.48;;;;;;;33.39;28.49;101813.88;4993352;28;20382;-68
2022/04/14 11:03:20;;;;;;;12.82;8.13;;;;;;;33.49;28.99;101811.22;4993057;28;20030;-68
2022/04/14 11:05:50;;;;;;;16.38;9.93;;;;;;;34.46;28.11;101822.44;4991756;28;20373;-68
2022/04/14 11:08:31;;;;;;;14.73;9.30;;;;;;;34.76;27.70;101825.53;4993205;28;20022;-67
2022/04/14 11:11:15;;;;;;;14.88;7.93;;;;;;;34.42;28.09;101827.69;4993746;28;20023;-68
2022/04/14 11:13:53;;;;;;;12.98;7.65;;;;;;;33.70;28.99;101837.38;4993192;28;20034;-68
2022/04/14 11:16:38;;;;;;;13.23;7.70;;;;;;;33.11;29.02;101839.00;4992920;28;20070;-68
2022/04/14 11:19:27;;;;;;;10.40;7.40;;;;;;;32.65;28.78;101842.91;4992856;28;20117;-67